Apiliotis — SYVY — position and weather

sailwx.info

Track history (hours):
 
Tides and Currents Weather Stations Pressure Air Temp Water Temp Dewpoint Dewpoint Depression Visibility Wind Speed Wind Dir Waves Ship Positions

Apiliotis

Last reported at 2015-Jul-07 08:33 UTC. Time now 2015-Jul-07 08:54 UTC.
Position N 36°44' E 026°14'.

Length 79 m; draft 4.5 m.

Type: Ship. MMSI: 240438000.

Date/timePositionNaut miles runAvg speedWind from/ knotsBaromVisibWave heightAir tempDewpointWater temp
2015-Jul-07 08:33N 36°44' E 026°14'7 1.5
2015-Jul-07 03:33N 36°39' E 026°21'10 9.6
2015-Jul-07 02:33N 36°40' E 026°33'10 9.7
2015-Jul-07 01:31N 36°40' E 026°45'66 1.4
2015-Jul-05 01:17N 37°42' E 026°18'21 0.8
2015-Jul-03 23:17N 37°21' E 026°15'6 8.4
2015-Jul-03 22:32N 37°15' E 026°13'8 8.2
2015-Jul-03 21:32N 37°07' E 026°11'8 8.4
2015-Jul-03 20:33N 36°59' E 026°09'8 8.0
2015-Jul-03 19:33N 36°52' E 026°04'10 9.6
2015-Jul-03 18:33N 36°46' E 025°55'9 8.6
2015-Jul-03 17:33N 36°42' E 025°46'8 8.5
2015-Jul-03 16:34N 36°37' E 025°36'9 9.1
2015-Jul-03 15:33N 36°32' E 025°27'7 7.2
2015-Jul-03 14:33N 36°26' E 025°24'3 2.8
2015-Jul-03 13:34N 36°23' E 025°26'0 0.0
2015-Jul-03 12:33N 36°23' E 025°26'0 0.0
2015-Jul-03 11:32N 36°23' E 025°26'0 0.0
2015-Jul-03 10:33N 36°23' E 025°26'0 0.0
2015-Jul-03 09:33N 36°23' E 025°26'0 0.0
2015-Jul-03 08:32N 36°23' E 025°26'0 0.0
2015-Jul-03 07:32N 36°23' E 025°26'0 0.0
2015-Jul-03 06:33N 36°23' E 025°26'1 1.0
2015-Jul-03 05:33N 36°24' E 025°25'1010.3
2015-Jul-03 04:32N 36°35' E 025°24'1111.5
2015-Jul-03 03:33N 36°45' E 025°28'7 7.1
2015-Jul-03 02:33N 36°52' E 025°31'0 0.0
2015-Jul-03 01:32N 36°52' E 025°31'0 0.0
2015-Jul-03 00:32N 36°52' E 025°31'0 0.0
2015-Jul-02 23:32N 36°52' E 025°31'7 7.0
2015-Jul-02 22:32N 36°56' E 025°23'1010.3
2015-Jul-02 21:34N 37°06' E 025°20'2 1.8
2015-Jul-02 20:34N 37°06' E 025°22'0 0.2
2015-Jul-02 19:33N 37°06' E 025°22'0 0.3
2015-Jul-02 18:34N 37°06' E 025°22'0 0.4
2015-Jul-02 17:33N 37°06' E 025°22'0 0.4
2015-Jul-02 16:34N 37°06' E 025°22'2 1.5
2015-Jul-02 15:34N 37°07' E 025°21'8 8.1
2015-Jul-02 14:33N 37°08' E 025°10'3 3.2
2015-Jul-02 13:33N 37°05' E 025°09'0 0.0
2015-Jul-02 12:33N 37°05' E 025°09'0 0.0
2015-Jul-02 11:32N 37°05' E 025°09'0 0.0
2015-Jul-02 10:33N 37°05' E 025°09'0 0.4
2015-Jul-02 09:33N 37°05' E 025°08'0 0.0
2015-Jul-02 08:33N 37°05' E 025°08'0 0.0
2015-Jul-02 07:33N 37°05' E 025°08'0 0.4
2015-Jul-02 06:33N 37°05' E 025°09'0 0.0
2015-Jul-02 05:32N 37°05' E 025°09'1 0.6
2015-Jul-02 04:33N 37°05' E 025°08'8 7.9
2015-Jul-02 03:32N 37°02' E 024°59'50 1.9
2015-Jul-01 01:33N 37°30' E 024°06'1010.5
2015-Jul-01 00:34N 37°35' E 023°54'1110.7
2015-Jun-30 23:33N 37°40' E 023°42'1110.6
2015-Jun-30 22:33N 37°49' E 023°36'1010.1
2015-Jun-30 21:33N 37°52' E 023°24'8 8.0
2015-Jun-30 20:33N 37°60' E 023°26'8 7.8
2015-Jun-30 19:34N 38°02' E 023°36'0 0.0
2015-Jun-30 18:33N 38°02' E 023°36'0 0.0
2015-Jun-30 17:33N 38°02' E 023°36'0 0.0
2015-Jun-30 16:34N 38°02' E 023°36'0 0.0
2015-Jun-30 15:33N 38°02' E 023°36'0 0.0
2015-Jun-30 14:33N 38°02' E 023°36'0 0.0
2015-Jun-30 13:33N 38°02' E 023°36'0 0.0
2015-Jun-30 12:11N 38°02' E 023°36'3 4.1
2015-Jun-30 11:33N 38°02' E 023°32'0 0.0
2015-Jun-30 10:33N 38°02' E 023°32'0 0.0
2015-Jun-30 09:33N 38°02' E 023°32'0 0.0
2015-Jun-30 08:33N 38°02' E 023°32'0 0.0
2015-Jun-30 07:33N 38°02' E 023°32'0 0.0
2015-Jun-30 06:33N 38°02' E 023°32'0 0.0
2015-Jun-30 05:33N 38°02' E 023°32'0 0.1
2015-Jun-30 04:34N 38°02' E 023°32'7 7.0
2015-Jun-30 03:33N 37°55' E 023°35'6 6.3
2015-Jun-30 02:34N 37°50' E 023°39'9 9.0
2015-Jun-30 01:33N 37°42' E 023°45'8 8.4
2015-Jun-30 00:33N 37°38' E 023°54'40 9.1
2015-Jun-29 20:09N 37°32' E 024°44'5 9.2
2015-Jun-29 19:33N 37°32' E 024°51'9 9.4
2015-Jun-29 18:34N 37°31' E 025°03'10 9.9
2015-Jun-29 17:33N 37°31' E 025°15'1010.1
2015-Jun-29 16:33N 37°35' E 025°27'9 9.3
2015-Jun-29 15:33N 37°36' E 025°38'9 9.4
2015-Jun-29 14:33N 37°38' E 025°50'10 9.3
2015-Jun-29 13:31N 37°41' E 026°02'9 9.6
2015-Jun-29 12:33N 37°43' E 026°13'9 9.0
2015-Jun-29 11:33N 37°45' E 026°24'43 2.3
2015-Jun-28 16:32N 37°08' E 026°51'0 0.0
2015-Jun-28 15:32N 37°08' E 026°51'  
Track history (hours):
 
Tides and Currents Weather Stations Pressure Air Temp Water Temp Dewpoint Dewpoint Depression Visibility Wind Speed Wind Dir Waves Ship Positions

Apiliotis

Last reported at 2015-Jul-07 08:33 UTC. Time now 2015-Jul-07 08:54 UTC.
Position N 36°44' E 026°14'.

Length 79 m; draft 4.5 m.

Type: Ship. MMSI: 240438000.

Date/timePositionNaut miles runAvg speedWind from/ knotsBaromVisibWave heightAir tempDewpointWater temp
2015-Jul-07 08:33N 36°44' E 026°14'7 1.5
2015-Jul-07 03:33N 36°39' E 026°21'10 9.6
2015-Jul-07 02:33N 36°40' E 026°33'10 9.7
2015-Jul-07 01:31N 36°40' E 026°45'66 1.4
2015-Jul-05 01:17N 37°42' E 026°18'21 0.8
2015-Jul-03 23:17N 37°21' E 026°15'6 8.4
2015-Jul-03 22:32N 37°15' E 026°13'8 8.2
2015-Jul-03 21:32N 37°07' E 026°11'8 8.4
2015-Jul-03 20:33N 36°59' E 026°09'8 8.0
2015-Jul-03 19:33N 36°52' E 026°04'10 9.6
2015-Jul-03 18:33N 36°46' E 025°55'9 8.6
2015-Jul-03 17:33N 36°42' E 025°46'8 8.5
2015-Jul-03 16:34N 36°37' E 025°36'9 9.1
2015-Jul-03 15:33N 36°32' E 025°27'7 7.2
2015-Jul-03 14:33N 36°26' E 025°24'3 2.8
2015-Jul-03 13:34N 36°23' E 025°26'0 0.0
2015-Jul-03 12:33N 36°23' E 025°26'0 0.0
2015-Jul-03 11:32N 36°23' E 025°26'0 0.0
2015-Jul-03 10:33N 36°23' E 025°26'0 0.0
2015-Jul-03 09:33N 36°23' E 025°26'0 0.0
2015-Jul-03 08:32N 36°23' E 025°26'0 0.0
2015-Jul-03 07:32N 36°23' E 025°26'0 0.0
2015-Jul-03 06:33N 36°23' E 025°26'1 1.0
2015-Jul-03 05:33N 36°24' E 025°25'1010.3
2015-Jul-03 04:32N 36°35' E 025°24'1111.5
2015-Jul-03 03:33N 36°45' E 025°28'7 7.1
2015-Jul-03 02:33N 36°52' E 025°31'0 0.0
2015-Jul-03 01:32N 36°52' E 025°31'0 0.0
2015-Jul-03 00:32N 36°52' E 025°31'0 0.0
2015-Jul-02 23:32N 36°52' E 025°31'7 7.0
2015-Jul-02 22:32N 36°56' E 025°23'1010.3
2015-Jul-02 21:34N 37°06' E 025°20'2 1.8
2015-Jul-02 20:34N 37°06' E 025°22'0 0.2
2015-Jul-02 19:33N 37°06' E 025°22'0 0.3
2015-Jul-02 18:34N 37°06' E 025°22'0 0.4
2015-Jul-02 17:33N 37°06' E 025°22'0 0.4
2015-Jul-02 16:34N 37°06' E 025°22'2 1.5
2015-Jul-02 15:34N 37°07' E 025°21'8 8.1
2015-Jul-02 14:33N 37°08' E 025°10'3 3.2
2015-Jul-02 13:33N 37°05' E 025°09'0 0.0
2015-Jul-02 12:33N 37°05' E 025°09'0 0.0
2015-Jul-02 11:32N 37°05' E 025°09'0 0.0
2015-Jul-02 10:33N 37°05' E 025°09'0 0.4
2015-Jul-02 09:33N 37°05' E 025°08'0 0.0
2015-Jul-02 08:33N 37°05' E 025°08'0 0.0
2015-Jul-02 07:33N 37°05' E 025°08'0 0.4
2015-Jul-02 06:33N 37°05' E 025°09'0 0.0
2015-Jul-02 05:32N 37°05' E 025°09'1 0.6
2015-Jul-02 04:33N 37°05' E 025°08'8 7.9
2015-Jul-02 03:32N 37°02' E 024°59'50 1.9
2015-Jul-01 01:33N 37°30' E 024°06'1010.5
2015-Jul-01 00:34N 37°35' E 023°54'1110.7
2015-Jun-30 23:33N 37°40' E 023°42'1110.6
2015-Jun-30 22:33N 37°49' E 023°36'1010.1
2015-Jun-30 21:33N 37°52' E 023°24'8 8.0
2015-Jun-30 20:33N 37°60' E 023°26'8 7.8
2015-Jun-30 19:34N 38°02' E 023°36'0 0.0
2015-Jun-30 18:33N 38°02' E 023°36'0 0.0
2015-Jun-30 17:33N 38°02' E 023°36'0 0.0
2015-Jun-30 16:34N 38°02' E 023°36'0 0.0
2015-Jun-30 15:33N 38°02' E 023°36'0 0.0
2015-Jun-30 14:33N 38°02' E 023°36'0 0.0
2015-Jun-30 13:33N 38°02' E 023°36'0 0.0
2015-Jun-30 12:11N 38°02' E 023°36'3 4.1
2015-Jun-30 11:33N 38°02' E 023°32'0 0.0
2015-Jun-30 10:33N 38°02' E 023°32'0 0.0
2015-Jun-30 09:33N 38°02' E 023°32'0 0.0
2015-Jun-30 08:33N 38°02' E 023°32'0 0.0
2015-Jun-30 07:33N 38°02' E 023°32'0 0.0
2015-Jun-30 06:33N 38°02' E 023°32'0 0.0
2015-Jun-30 05:33N 38°02' E 023°32'0 0.1
2015-Jun-30 04:34N 38°02' E 023°32'7 7.0
2015-Jun-30 03:33N 37°55' E 023°35'6 6.3
2015-Jun-30 02:34N 37°50' E 023°39'9 9.0
2015-Jun-30 01:33N 37°42' E 023°45'8 8.4
2015-Jun-30 00:33N 37°38' E 023°54'40 9.1
2015-Jun-29 20:09N 37°32' E 024°44'5 9.2
2015-Jun-29 19:33N 37°32' E 024°51'9 9.4
2015-Jun-29 18:34N 37°31' E 025°03'10 9.9
2015-Jun-29 17:33N 37°31' E 025°15'1010.1
2015-Jun-29 16:33N 37°35' E 025°27'9 9.3
2015-Jun-29 15:33N 37°36' E 025°38'9 9.4
2015-Jun-29 14:33N 37°38' E 025°50'10 9.3
2015-Jun-29 13:31N 37°41' E 026°02'9 9.6
2015-Jun-29 12:33N 37°43' E 026°13'9 9.0
2015-Jun-29 11:33N 37°45' E 026°24'43 2.3
2015-Jun-28 16:32N 37°08' E 026°51'0 0.0
2015-Jun-28 15:32N 37°08' E 026°51'  

Dump ship's entire track history